Terminal Aerodrome Forecast
Issued by NWS

Home | Current Version | Previous Version | Text Only | Print | Product List | Glossary Off
Versions: 1 2 3 4 5 6 7 8 9 10 11 12 13 14 15 16 17 18 19 20

000
FTUS43 KTOP 191701 AAC
TAFFOE
TAF AMD
KFOE 191701Z 1917/2012 16011KT P6SM BKN012
      TEMPO 1917/1919 BKN009
     FM192100 17010KT P6SM BKN025
     FM200200 16008KT 5SM BR OVC015
     FM200800 16009KT 4SM BR VCSH OVC009=

USA.gov is the U.S. government's official web portal to all federal, state and local government web resources and services.